»·PEaware :: FFT576 KSLC-KDEN

FFT576 :: KSLC-KDEN

FLIGHT INFORMATION

Flight Status: Arrived
Operator:
Frontier Airlines
More flights by this operator :: More flights under this callsign
Pilot: John C. (18682)
Aircraft: AIRBUS A320
(A320)
More flights by this aircraft type
Origin: KSLC Salt Lake City Intl
United States
Destination: KDEN Denver Intl
United States
More flights between these airports :: More routes between these airports
Route: +NSIGN5 CHE FRNCH3
File this flight plan on PilotEdge
Remarks:
Altitude:
(Current/Filed)
37,000ft
Speed:
(Current/Filed)
445kts
Departed: 13-May-18 11:56 AM
Arrived: 13-May-18 01:04 PM
Distance/Time
Traveled:
339nm/1:08
Distance/Time
To Go:
Arrived

Flight Plot

Page will automatically refresh every two minutes.

Flight plan parsing failed; only flown route is shown


Map Options




Map Legend


Flown Route
Filed Route
Departure Airport
Arrival Airport
Navaid (VOR, NDB)
Fix

Horizontal Profiles

Position Reports

Time Latitude Longitude Heading Altitude Ground
Speed
13-May-18 11:32 40.784842 -111.978442 9 4236ft 0kts
13-May-18 11:33 40.784842 -111.978442 9 4236ft 0kts
13-May-18 11:34 40.784842 -111.978442 9 4236ft 0kts
13-May-18 11:35 40.784842 -111.978442 9 4236ft 0kts
13-May-18 11:36 40.784842 -111.978442 9 4236ft 0kts
13-May-18 11:37 40.784842 -111.978442 9 4236ft 0kts
13-May-18 11:38 40.784842 -111.978442 9 4236ft 0kts
13-May-18 11:39 40.784842 -111.978442 9 4236ft 0kts
13-May-18 11:40 40.784842 -111.978442 9 4236ft 0kts
13-May-18 11:41 40.784842 -111.978442 9 4236ft 0kts
13-May-18 11:42 40.784842 -111.978442 9 4236ft 0kts
13-May-18 11:43 40.784842 -111.978442 9 4236ft 0kts
13-May-18 11:44 40.784842 -111.978442 9 4236ft 0kts
13-May-18 11:45 40.784842 -111.978442 9 4236ft 0kts
13-May-18 11:46 40.784842 -111.978442 9 4236ft 0kts
13-May-18 11:47 40.784842 -111.978442 9 4236ft 0kts
13-May-18 11:48 40.784842 -111.978442 9 4236ft 0kts
13-May-18 11:49 40.784336 -111.978553 9 4236ft 2kts
13-May-18 11:50 40.783993 -111.978800 84 4236ft 1kts
13-May-18 11:51 40.784039 -111.978229 84 4236ft 0kts
13-May-18 11:52 40.784039 -111.978229 84 4236ft 0kts
13-May-18 11:53 40.783302 -111.976315 173 4236ft 16kts
13-May-18 11:54 40.777470 -111.975129 175 4236ft 22kts
13-May-18 11:55 40.774769 -111.973530 53 4236ft 10kts
13-May-18 11:56 40.797106 -111.975774 356 4780ft 173kts
13-May-18 11:57 40.855748 -111.984092 352 7240ft 256kts
13-May-18 11:58 40.930307 -111.993791 353 10685ft 284kts
13-May-18 11:59 41.011769 -112.005022 353 13705ft 320kts
13-May-18 12:00 41.099023 -111.991026 46 16603ft 336kts
13-May-18 12:01 41.144589 -111.897448 94 19121ft 337kts
13-May-18 12:02 41.122775 -111.777576 132 21592ft 339kts
13-May-18 12:03 41.043949 -111.709831 151 23906ft 345kts
13-May-18 12:04 40.960528 -111.644477 152 26005ft 355kts
13-May-18 12:05 40.917280 -111.525945 98 27293ft 407kts
13-May-18 12:06 40.906021 -111.371478 102 28217ft 433kts
13-May-18 12:07 40.887803 -111.216308 103 29557ft 443kts
13-May-18 12:08 40.868422 -111.053801 104 30779ft 455kts
13-May-18 12:09 40.848195 -110.886549 109 31845ft 467kts
13-May-18 12:10 40.827368 -110.716335 109 32881ft 475kts
13-May-18 12:11 40.806145 -110.544803 110 34117ft 475kts
13-May-18 12:12 40.784677 -110.373619 110 35387ft 472kts
13-May-18 12:13 40.763195 -110.204494 111 36561ft 467kts
13-May-18 12:14 40.742259 -110.035513 107 37183ft 473kts
13-May-18 12:15 40.729997 -109.861864 106 37165ft 476kts
13-May-18 12:16 40.717622 -109.688966 106 37168ft 475kts
13-May-18 12:17 40.704988 -109.516204 106 37171ft 475kts
13-May-18 12:18 40.692079 -109.343234 107 37171ft 476kts
13-May-18 12:19 40.678972 -109.170994 107 37180ft 474kts
13-May-18 12:20 40.665640 -108.999271 105 37184ft 471kts
13-May-18 12:21 40.652091 -108.828115 105 37174ft 468kts
13-May-18 12:22 40.638370 -108.658108 105 37157ft 467kts
13-May-18 12:23 40.624451 -108.488770 105 37174ft 467kts
13-May-18 12:24 40.610541 -108.322496 106 37186ft 467kts
13-May-18 12:25 40.596152 -108.153449 106 37201ft 466kts
13-May-18 12:26 40.581514 -107.984499 106 37209ft 466kts
13-May-18 12:27 40.566624 -107.815656 106 37220ft 466kts
13-May-18 12:28 40.551466 -107.646553 106 37228ft 466kts
13-May-18 12:29 40.536099 -107.477899 106 37232ft 466kts
13-May-18 12:30 40.520634 -107.309882 105 37245ft 467kts
13-May-18 12:31 40.511376 -107.138822 103 37184ft 471kts
13-May-18 12:32 40.502159 -106.967679 102 37181ft 472kts
13-May-18 12:33 40.492674 -106.796163 101 37203ft 471kts
13-May-18 12:34 40.483014 -106.625947 101 36574ft 467kts
13-May-18 12:35 40.473205 -106.457429 101 34744ft 459kts
13-May-18 12:36 40.463425 -106.293704 101 32809ft 448kts
13-May-18 12:37 40.453617 -106.133548 101 30868ft 436kts
13-May-18 12:38 40.442465 -105.977843 106 28909ft 422kts
13-May-18 12:39 40.419396 -105.830328 107 26958ft 411kts
13-May-18 12:40 40.396674 -105.686534 106 25006ft 402kts
13-May-18 12:41 40.374312 -105.546241 105 23056ft 393kts
13-May-18 12:42 40.343391 -105.415734 133 21522ft 359kts
13-May-18 12:43 40.281017 -105.317823 134 19763ft 349kts
13-May-18 12:44 40.219894 -105.222058 133 18012ft 340kts
13-May-18 12:45 40.160587 -105.129343 132 16604ft 329kts
13-May-18 12:46 40.102884 -105.039338 132 15578ft 322kts
13-May-18 12:47 40.046284 -104.951299 132 14566ft 315kts
13-May-18 12:48 39.990664 -104.864988 132 13570ft 309kts
13-May-18 12:49 39.924956 -104.805356 182 12369ft 292kts
13-May-18 12:50 39.859257 -104.807136 182 11437ft 276kts
13-May-18 12:51 39.788317 -104.808924 183 11057ft 244kts
13-May-18 12:52 39.720675 -104.810732 183 11043ft 245kts
13-May-18 12:53 39.652612 -104.812536 183 11041ft 245kts
13-May-18 12:54 39.584477 -104.814342 183 11041ft 245kts
13-May-18 12:55 39.525283 -104.786041 110 10185ft 258kts
13-May-18 12:56 39.533080 -104.694816 78 9101ft 257kts
13-May-18 12:57 39.550046 -104.606428 46 8057ft 250kts
13-May-18 12:58 39.609147 -104.609094 328 7547ft 232kts
13-May-18 12:59 39.660535 -104.646699 325 7540ft 194kts
13-May-18 13:00 39.708786 -104.661761 355 7529ft 171kts
13-May-18 13:01 39.753949 -104.661467 356 6935ft 146kts
13-May-18 13:02 39.792686 -104.660961 356 6150ft 138kts
13-May-18 13:03 39.830319 -104.660299 357 5448ft 132kts
13-May-18 13:04 39.847521 -104.660525 344 5443ft 21kts
13-May-18 13:05 39.849919 -104.662057 338 5443ft 23kts
13-May-18 13:06 39.852931 -104.664916 258 5443ft 14kts
13-May-18 13:07 39.852760 -104.671376 270 5443ft 9kts
13-May-18 13:08 39.853369 -104.671936 0 5443ft 0kts
13-May-18 13:09 39.853369 -104.671936 0 5443ft 0kts
13-May-18 13:10 39.853369 -104.671936 0 5443ft 0kts
13-May-18 13:11 39.853369 -104.671936 0 5443ft 0kts
13-May-18 13:12 39.853369 -104.671936 0 5443ft 0kts

Navigation Log

Ident Type
Flight plan parsing failed, navigation log unavailable